地図

経路データ

SID SEASON NUMBER BASIN SUBBASIN NAME ISO_TIME NATURE LAT LON WMO_WIND WMO_PRES WMO_AGENCY TRACK_TYPE DIST2LAND LANDFALL IFLAG USA_AGENCY USA_ATCF_ID USA_LAT USA_LON USA_RECORD USA_STATUS USA_WIND USA_PRES USA_SSHS USA_R34_NE USA_R34_SE USA_R34_SW USA_R34_NW USA_R50_NE USA_R50_SE USA_R50_SW USA_R50_NW USA_R64_NE USA_R64_SE USA_R64_SW USA_R64_NW USA_POCI USA_ROCI USA_RMW USA_EYE TOKYO_LAT TOKYO_LON TOKYO_GRADE TOKYO_WIND TOKYO_PRES TOKYO_R50_DIR TOKYO_R50_LONG TOKYO_R50_SHORT TOKYO_R30_DIR TOKYO_R30_LONG TOKYO_R30_SHORT TOKYO_LAND CMA_LAT CMA_LON CMA_CAT CMA_WIND CMA_PRES HKO_LAT HKO_LON HKO_CAT HKO_WIND HKO_PRES NEWDELHI_LAT NEWDELHI_LON NEWDELHI_GRADE NEWDELHI_WIND NEWDELHI_PRES NEWDELHI_CI NEWDELHI_DP NEWDELHI_POCI REUNION_LAT REUNION_LON REUNION_TYPE REUNION_WIND REUNION_PRES REUNION_TNUM REUNION_CI REUNION_RMW REUNION_R34_NE REUNION_R34_SE REUNION_R34_SW REUNION_R34_NW REUNION_R50_NE REUNION_R50_SE REUNION_R50_SW REUNION_R50_NW REUNION_R64_NE REUNION_R64_SE REUNION_R64_SW REUNION_R64_NW BOM_LAT BOM_LON BOM_TYPE BOM_WIND BOM_PRES BOM_TNUM BOM_CI BOM_RMW BOM_R34_NE BOM_R34_SE BOM_R34_SW BOM_R34_NW BOM_R50_NE BOM_R50_SE BOM_R50_SW BOM_R50_NW BOM_R64_NE BOM_R64_SE BOM_R64_SW BOM_R64_NW BOM_ROCI BOM_POCI BOM_EYE BOM_POS_METHOD BOM_PRES_METHOD NADI_LAT NADI_LON NADI_CAT NADI_WIND NADI_PRES WELLINGTON_LAT WELLINGTON_LON WELLINGTON_WIND WELLINGTON_PRES DS824_LAT DS824_LON DS824_STAGE DS824_WIND DS824_PRES TD9636_LAT TD9636_LON TD9636_STAGE TD9636_WIND TD9636_PRES TD9635_LAT TD9635_LON TD9635_WIND TD9635_PRES TD9635_ROCI NEUMANN_LAT NEUMANN_LON NEUMANN_CLASS NEUMANN_WIND NEUMANN_PRES MLC_LAT MLC_LON MLC_CLASS MLC_WIND MLC_PRES USA_GUST BOM_GUST BOM_GUST_PER REUNION_GUST REUNION_GUST_PER USA_SEAHGT USA_SEARAD_NE USA_SEARAD_SE USA_SEARAD_SW USA_SEARAD_NW STORM_SPEED STORM_DIR
1892212N18126 1892 30 WP MM NOT_NAMED 1892-07-29 16:00:00 NR 17.6000 126.300 main 409 351 __________O___ -1 17.6000 126.300 7 18 290
1892212N18126 1892 30 WP MM NOT_NAMED 1892-07-29 18:00:00 NR 17.8003 125.719 main 351 275 __________P___ -1 17.8003 125.719 7 17 290
1892212N18126 1892 30 WP MM NOT_NAMED 1892-07-29 21:00:00 NR 18.0926 124.864 main 275 189 __________P___ -1 18.0926 124.864 7 17 290
1892212N18126 1892 30 WP MM NOT_NAMED 1892-07-30 00:00:00 NR 18.3687 124.055 main 189 107 __________P___ -1 18.3687 124.055 7 16 290
1892212N18126 1892 30 WP MM NOT_NAMED 1892-07-30 03:00:00 NR 18.6219 123.322 main 107 90 __________P___ -1 18.6219 123.322 7 14 290
1892212N18126 1892 30 WP MM NOT_NAMED 1892-07-30 04:00:00 NR 18.7000 123.100 main 90 61 __________O___ -1 18.7000 123.100 7 13 291
1892212N18126 1892 30 WP MM NOT_NAMED 1892-07-30 06:00:00 NR 18.8461 122.692 main 61 56 __________P___ -1 18.8461 122.692 7 11 291
1892212N18126 1892 30 WP MM NOT_NAMED 1892-07-30 09:00:00 NR 19.0412 122.157 main 67 78 __________P___ -1 19.0412 122.157 7 10 291
1892212N18126 1892 30 WP MM NOT_NAMED 1892-07-30 12:00:00 NR 19.2104 121.685 main 84 81 __________P___ -1 19.2104 121.685 7 9 290
1892212N18126 1892 30 WP MM NOT_NAMED 1892-07-30 15:00:00 NR 19.3562 121.245 main 94 91 __________P___ -1 19.3562 121.245 7 9 289
1892212N18126 1892 30 WP MM NOT_NAMED 1892-07-30 16:00:00 NR 19.4000 121.100 main 91 89 __________O___ -1 19.4000 121.100 7 9 286
1892212N18126 1892 30 WP MM NOT_NAMED 1892-07-30 18:00:00 NR 19.4782 120.788 main 100 100 __________P___ -1 19.4782 120.788 7 9 284
1892212N18126 1892 30 WP MM NOT_NAMED 1892-07-30 21:00:00 NR 19.5767 120.333 main 123 123 __________P___ -1 19.5767 120.333 7 9 283
1892212N18126 1892 30 WP MM NOT_NAMED 1892-07-31 00:00:00 NR 19.6666 119.888 main 155 155 __________P___ -1 19.6666 119.888 7 9 283
1892212N18126 1892 30 WP MM NOT_NAMED 1892-07-31 03:00:00 NR 19.7635 119.447 main 199 199 __________P___ -1 19.7635 119.447 7 9 284
1892212N18126 1892 30 WP MM NOT_NAMED 1892-07-31 04:00:00 NR 19.8000 119.300 main 206 206 __________O___ -1 19.8000 119.300 7 9 286
1892212N18126 1892 30 WP MM NOT_NAMED 1892-07-31 06:00:00 NR 19.8858 118.997 main 237 237 __________P___ -1 19.8858 118.997 7 9 288
1892212N18126 1892 30 WP MM NOT_NAMED 1892-07-31 09:00:00 NR 20.0271 118.543 main 284 284 __________P___ -1 20.0271 118.543 7 9 289
1892212N18126 1892 30 WP MM NOT_NAMED 1892-07-31 12:00:00 NR 20.1809 118.092 main 330 312 __________P___ -1 20.1809 118.092 7 9 291
1892212N18126 1892 30 WP MM NOT_NAMED 1892-07-31 15:00:00 NR 20.3441 117.647 main 312 298 __________P___ -1 20.3441 117.647 7 9 292
1892212N18126 1892 30 WP MM NOT_NAMED 1892-07-31 16:00:00 NR 20.4000 117.500 main 298 277 __________O___ -1 20.4000 117.500 7 9 291
1892212N18126 1892 30 WP MM NOT_NAMED 1892-07-31 18:00:00 NR 20.5057 117.190 main 277 242 __________P___ -1 20.5057 117.190 7 9 291
1892212N18126 1892 30 WP MM NOT_NAMED 1892-07-31 21:00:00 NR 20.6706 116.731 main 242 218 __________P___ -1 20.6706 116.731 7 9 292
1892212N18126 1892 30 WP MM NOT_NAMED 1892-08-01 00:00:00 NR 20.8456 116.298 main 218 190 __________P___ -1 20.8456 116.298 7 8 295
1892212N18126 1892 30 WP MM NOT_NAMED 1892-08-01 03:00:00 NR 21.0338 115.914 main 190 178 __________P___ -1 21.0338 115.914 7 8 299
1892212N18126 1892 30 WP MM NOT_NAMED 1892-08-01 04:00:00 NR 21.1000 115.800 main 178 162 __________O___ -1 21.1000 115.800 3 7 302
1892212N18126 1892 30 WP MM NOT_NAMED 1892-08-01 06:00:00 NR 21.2251 115.588 main 162 129 __________P___ -1 21.2251 115.588 3 7 306
1892212N18126 1892 30 WP MM NOT_NAMED 1892-08-01 09:00:00 NR 21.4255 115.321 main 129 102 __________P___ -1 21.4255 115.321 3 6 314
1892212N18126 1892 30 WP MM NOT_NAMED 1892-08-01 12:00:00 NR 21.6493 115.109 main 102 67 __________P___ -1 21.6493 115.109 3 6 324
1892212N18126 1892 30 WP MM NOT_NAMED 1892-08-01 15:00:00 NR 21.9057 114.945 main 67 55 __________P___ -1 21.9057 114.945 3 6 331
1892212N18126 1892 30 WP MM NOT_NAMED 1892-08-01 16:00:00 NR 22.0000 114.900 main 55 35 __________O___ -1 22.0000 114.900 4 6 340
1892212N18126 1892 30 WP MM NOT_NAMED 1892-08-01 18:00:00 NR 22.2029 114.823 main 35 10 __________P___ -1 22.2029 114.823 4 7 344
1892212N18126 1892 30 WP MM NOT_NAMED 1892-08-01 21:00:00 NR 22.5373 114.734 main 10 0 __________P___ -1 22.5373 114.734 4 7 348
1892212N18126 1892 30 WP MM NOT_NAMED 1892-08-02 00:00:00 NR 22.8979 114.669 main 0 0 __________P___ -1 22.8979 114.669 4 7 351
1892212N18126 1892 30 WP MM NOT_NAMED 1892-08-02 03:00:00 NR 23.2734 114.616 main 0 0 __________P___ -1 23.2734 114.616 4 8 352
1892212N18126 1892 30 WP MM NOT_NAMED 1892-08-02 04:00:00 NR 23.4000 114.600 main 0 __________O___ -1 23.4000 114.600 4 8 0

デジタル台風データ・検索

IBTrACS Databaseについて

本データベースは、米国NOAAが公開する1842年以降の世界の熱帯低気圧のベストトラックデータアーカイブInternational Best Track Archive for Climate Stewardship (IBTrACS)を、ウェブで閲覧しやすい形式に変換したものです。

最終更新日:2021-11-26